KAMW/AMW METAR and TAF weather

Enter ICAO airport designator
Station Type Date Time Source
KAMW METAR 2021/09/16 10:53 UTC NOAA

KAMW 161053Z AUTO 14004KT 10SM CLR 12/10 A2997 RMK AO2 SLP143 T01220100


Station Type Date Time Source
KAMW Decoded METAR 2021/09/16 10:53 UTC NOAA

AMES MUNICIPAL AIRPORT, IA, United States (KAMW) 41-59N 93-37W 279M
Sep 16, 2021 - 06:53 AM EDT / 2021.09.16 1053 UTC
Wind: from the SE (140 degrees) at 5 MPH (4 KT):0
Visibility: 10 mile(s):0
Sky conditions: clear
Temperature: 54.0 F (12.2 C)
Dew Point: 50.0 F (10.0 C)
Relative Humidity: 86%
Pressure (altimeter): 29.97 in. Hg (1014 hPa)
ob: KAMW 161053Z AUTO 14004KT 10SM CLR 12/10 A2997 RMK AO2 SLP143 T01220100
cycle: 11

Station Type Date Time Source
KAMW TAF UTC NOAA

Error!

Example: see airport list